sensor_id;sensor_type;location;lat;lon;timestamp;pressure;altitude;pressure_sealevel;temperature;humidity
43770;BME280;6597;52.218;9.882;2023-04-07T00:00:56;100891.28;;;2.31;84.64
43770;BME280;6597;52.218;9.882;2023-04-07T00:03:22;100880.91;;;2.25;85.01
43770;BME280;6597;52.218;9.882;2023-04-07T00:05:50;100879.16;;;2.19;85.67
43770;BME280;6597;52.218;9.882;2023-04-07T00:08:18;100880.91;;;2.18;85.39
43770;BME280;6597;52.218;9.882;2023-04-07T00:10:44;100878.31;;;2.20;85.54
43770;BME280;6597;52.218;9.882;2023-04-07T00:13:11;100880.91;;;2.12;85.72
43770;BME280;6597;52.218;9.882;2023-04-07T00:15:38;100872.25;;;2.01;85.61
43770;BME280;6597;52.218;9.882;2023-04-07T00:18:04;100869.66;;;1.97;85.72
43770;BME280;6597;52.218;9.882;2023-04-07T00:20:31;100878.25;;;1.93;86.00
43770;BME280;6597;52.218;9.882;2023-04-07T00:22:57;100867.91;;;1.83;86.22
43770;BME280;6597;52.218;9.882;2023-04-07T00:25:25;100872.19;;;1.78;86.13
43770;BME280;6597;52.218;9.882;2023-04-07T00:27:52;100869.59;;;1.69;86.65
43770;BME280;6597;52.218;9.882;2023-04-07T00:30:18;100873.03;;;1.67;87.20
43770;BME280;6597;52.218;9.882;2023-04-07T00:32:45;100870.44;;;1.67;87.63
43770;BME280;6597;52.218;9.882;2023-04-07T00:35:11;100872.19;;;1.65;87.47
43770;BME280;6597;52.218;9.882;2023-04-07T00:37:38;100876.47;;;1.63;87.58
43770;BME280;6597;52.218;9.882;2023-04-07T00:40:05;100873.91;;;1.66;87.69
43770;BME280;6597;52.218;9.882;2023-04-07T00:42:34;100867.84;;;1.64;87.73
43770;BME280;6597;52.218;9.882;2023-04-07T00:45:00;100873.00;;;1.59;87.97
43770;BME280;6597;52.218;9.882;2023-04-07T00:47:27;100870.41;;;1.56;88.31
43770;BME280;6597;52.218;9.882;2023-04-07T00:49:53;100876.44;;;1.53;88.48
43770;BME280;6597;52.218;9.882;2023-04-07T00:52:20;100866.91;;;1.46;88.58
43770;BME280;6597;52.218;9.882;2023-04-07T00:54:52;100867.78;;;1.42;88.70
43770;BME280;6597;52.218;9.882;2023-04-07T00:57:19;100867.75;;;1.38;89.20
43770;BME280;6597;52.218;9.882;2023-04-07T00:59:48;100866.03;;;1.34;89.63
43770;BME280;6597;52.218;9.882;2023-04-07T01:02:15;100862.53;;;1.29;89.89
43770;BME280;6597;52.218;9.882;2023-04-07T01:04:46;100860.78;;;1.28;90.08
43770;BME280;6597;52.218;9.882;2023-04-07T01:07:17;100867.69;;;1.27;89.91
43770;BME280;6597;52.218;9.882;2023-04-07T01:09:55;100870.25;;;1.24;89.76
43770;BME280;6597;52.218;9.882;2023-04-07T01:12:28;100865.06;;;1.16;89.48
43770;BME280;6597;52.218;9.882;2023-04-07T01:15:04;100852.97;;;1.11;89.88
43770;BME280;6597;52.218;9.882;2023-04-07T01:17:42;100863.31;;;1.09;89.85
43770;BME280;6597;52.218;9.882;2023-04-07T01:20:13;100852.13;;;1.12;90.11
43770;BME280;6597;52.218;9.882;2023-04-07T01:22:43;100847.81;;;1.11;90.51
43770;BME280;6597;52.218;9.882;2023-04-07T01:25:22;100855.56;;;1.14;90.61
43770;BME280;6597;52.218;9.882;2023-04-07T01:28:13;100853.84;;;1.16;90.69
43770;BME280;6597;52.218;9.882;2023-04-07T01:30:43;100858.16;;;1.14;90.56
43770;BME280;6597;52.218;9.882;2023-04-07T01:33:11;100850.41;;;1.12;90.25
43770;BME280;6597;52.218;9.882;2023-04-07T01:35:40;100852.94;;;1.05;90.19
43770;BME280;6597;52.218;9.882;2023-04-07T01:38:08;100851.19;;;0.98;89.89
43770;BME280;6597;52.218;9.882;2023-04-07T01:40:37;100855.47;;;0.94;90.20
43770;BME280;6597;52.218;9.882;2023-04-07T01:43:05;100839.06;;;0.86;90.94
43770;BME280;6597;52.218;9.882;2023-04-07T01:45:34;100847.75;;;0.99;90.87
43770;BME280;6597;52.218;9.882;2023-04-07T01:48:04;100858.97;;;1.02;90.62
43770;BME280;6597;52.218;9.882;2023-04-07T01:50:32;100858.13;;;1.08;89.81
43770;BME280;6597;52.218;9.882;2023-04-07T01:52:59;100859.00;;;1.05;89.90
43770;BME280;6597;52.218;9.882;2023-04-07T01:55:26;100860.75;;;1.12;89.47
43770;BME280;6597;52.218;9.882;2023-04-07T01:58:03;100859.88;;;1.10;88.95
43770;BME280;6597;52.218;9.882;2023-04-07T02:00:30;100856.41;;;1.04;89.12
43770;BME280;6597;52.218;9.882;2023-04-07T02:03:06;100868.44;;;1.00;88.83
43770;BME280;6597;52.218;9.882;2023-04-07T02:05:37;100853.72;;;0.93;89.22
43770;BME280;6597;52.218;9.882;2023-04-07T02:08:07;100855.44;;;0.89;89.12
43770;BME280;6597;52.218;9.882;2023-04-07T02:10:37;100856.25;;;0.82;89.44
43770;BME280;6597;52.218;9.882;2023-04-07T02:13:05;100851.97;;;0.84;89.86
43770;BME280;6597;52.218;9.882;2023-04-07T02:15:35;100861.44;;;0.82;90.38
43770;BME280;6597;52.218;9.882;2023-04-07T02:18:03;100853.69;;;0.84;90.37
43770;BME280;6597;52.218;9.882;2023-04-07T02:20:34;100857.97;;;0.79;90.17
43770;BME280;6597;52.218;9.882;2023-04-07T02:23:02;100857.09;;;0.78;90.38
43770;BME280;6597;52.218;9.882;2023-04-07T02:25:31;100851.91;;;0.75;90.40
43770;BME280;6597;52.218;9.882;2023-04-07T02:27:59;100851.88;;;0.71;90.08
43770;BME280;6597;52.218;9.882;2023-04-07T02:30:27;100855.31;;;0.68;90.19
43770;BME280;6597;52.218;9.882;2023-04-07T02:32:54;100852.69;;;0.63;90.14
43770;BME280;6597;52.218;9.882;2023-04-07T02:35:21;100852.72;;;0.65;90.88
43770;BME280;6597;52.218;9.882;2023-04-07T02:37:49;100857.91;;;0.70;90.12
43770;BME280;6597;52.218;9.882;2023-04-07T02:40:16;100862.19;;;0.66;89.94
43770;BME280;6597;52.218;9.882;2023-04-07T02:42:43;100863.00;;;0.62;90.45
43770;BME280;6597;52.218;9.882;2023-04-07T02:45:10;100858.69;;;0.62;90.39
43770;BME280;6597;52.218;9.882;2023-04-07T02:47:39;100866.44;;;0.59;90.56
43770;BME280;6597;52.218;9.882;2023-04-07T02:50:06;100867.25;;;0.55;90.88
43770;BME280;6597;52.218;9.882;2023-04-07T02:52:34;100864.66;;;0.52;90.67
43770;BME280;6597;52.218;9.882;2023-04-07T02:55:06;100860.38;;;0.53;90.65
43770;BME280;6597;52.218;9.882;2023-04-07T02:57:33;100856.91;;;0.49;90.86
43770;BME280;6597;52.218;9.882;2023-04-07T03:00:04;100856.03;;;0.49;91.36
43770;BME280;6597;52.218;9.882;2023-04-07T03:02:47;100859.50;;;0.54;91.44
43770;BME280;6597;52.218;9.882;2023-04-07T03:05:15;100854.31;;;0.48;91.41
43770;BME280;6597;52.218;9.882;2023-04-07T03:07:41;100853.44;;;0.47;91.98
43770;BME280;6597;52.218;9.882;2023-04-07T03:10:10;100854.31;;;0.49;91.53
43770;BME280;6597;52.218;9.882;2023-04-07T03:12:37;100861.19;;;0.49;91.75
43770;BME280;6597;52.218;9.882;2023-04-07T03:15:05;100860.31;;;0.44;91.97
43770;BME280;6597;52.218;9.882;2023-04-07T03:17:32;100857.66;;;0.33;92.01
43770;BME280;6597;52.218;9.882;2023-04-07T03:20:00;100861.03;;;0.32;92.79
43770;BME280;6597;52.218;9.882;2023-04-07T03:22:28;100853.25;;;0.27;93.30
43770;BME280;6597;52.218;9.882;2023-04-07T03:24:55;100855.03;;;0.31;93.50
43770;BME280;6597;52.218;9.882;2023-04-07T03:27:25;100863.72;;;0.40;93.99
43770;BME280;6597;52.218;9.882;2023-04-07T03:29:52;100873.94;;;0.27;94.54
43770;BME280;6597;52.218;9.882;2023-04-07T03:32:19;100860.91;;;0.15;94.82
43770;BME280;6597;52.218;9.882;2023-04-07T03:34:45;100859.97;;;0.06;95.41
43770;BME280;6597;52.218;9.882;2023-04-07T03:37:12;100857.38;;;0.04;95.72
43770;BME280;6597;52.218;9.882;2023-04-07T03:39:40;100864.25;;;0.02;95.11
43770;BME280;6597;52.218;9.882;2023-04-07T03:42:20;100853.00;;;-0.02;95.80
43770;BME280;6597;52.218;9.882;2023-04-07T03:44:51;100851.25;;;-0.07;95.65
43770;BME280;6597;52.218;9.882;2023-04-07T03:47:17;100854.69;;;-0.05;95.70
43770;BME280;6597;52.218;9.882;2023-04-07T03:49:51;100858.16;;;-0.03;95.90
43770;BME280;6597;52.218;9.882;2023-04-07T03:52:19;100867.56;;;-0.08;96.48
43770;BME280;6597;52.218;9.882;2023-04-07T03:54:49;100862.38;;;-0.11;96.26
43770;BME280;6597;52.218;9.882;2023-04-07T03:57:16;100849.41;;;-0.19;96.00
43770;BME280;6597;52.218;9.882;2023-04-07T03:59:46;100874.44;;;-0.10;95.60
43770;BME280;6597;52.218;9.882;2023-04-07T04:02:17;100868.41;;;-0.12;95.47
43770;BME280;6597;52.218;9.882;2023-04-07T04:04:48;100863.16;;;-0.20;95.18
43770;BME280;6597;52.218;9.882;2023-04-07T04:07:14;100879.53;;;-0.16;95.42
43770;BME280;6597;52.218;9.882;2023-04-07T04:09:48;100875.25;;;-0.16;96.04
43770;BME280;6597;52.218;9.882;2023-04-07T04:12:15;100876.97;;;-0.16;95.40
43770;BME280;6597;52.218;9.882;2023-04-07T04:14:50;100882.09;;;-0.18;95.48
43770;BME280;6597;52.218;9.882;2023-04-07T04:17:19;100882.97;;;-0.16;95.22
43770;BME280;6597;52.218;9.882;2023-04-07T04:19:45;100880.38;;;-0.19;94.99
43770;BME280;6597;52.218;9.882;2023-04-07T04:22:23;100873.47;;;-0.20;95.47
43770;BME280;6597;52.218;9.882;2023-04-07T04:24:53;100874.38;;;-0.16;95.34
43770;BME280;6597;52.218;9.882;2023-04-07T04:27:22;100876.97;;;-0.16;94.31
43770;BME280;6597;52.218;9.882;2023-04-07T04:29:54;100884.66;;;-0.21;94.78
43770;BME280;6597;52.218;9.882;2023-04-07T04:32:32;100879.38;;;-0.32;95.45
43770;BME280;6597;52.218;9.882;2023-04-07T04:34:59;100875.03;;;-0.34;96.51
43770;BME280;6597;52.218;9.882;2023-04-07T04:37:27;100876.75;;;-0.33;96.00
43770;BME280;6597;52.218;9.882;2023-04-07T04:39:54;100881.91;;;-0.33;96.29
43770;BME280;6597;52.218;9.882;2023-04-07T04:42:22;100881.03;;;-0.35;97.07
43770;BME280;6597;52.218;9.882;2023-04-07T04:44:50;100886.19;;;-0.35;96.76
43770;BME280;6597;52.218;9.882;2023-04-07T04:47:17;100882.75;;;-0.37;96.86
43770;BME280;6597;52.218;9.882;2023-04-07T04:49:46;100892.16;;;-0.39;97.06
43770;BME280;6597;52.218;9.882;2023-04-07T04:52:12;100895.63;;;-0.37;96.98
43770;BME280;6597;52.218;9.882;2023-04-07T04:54:42;100905.94;;;-0.37;97.04
43770;BME280;6597;52.218;9.882;2023-04-07T04:57:10;100893.91;;;-0.37;96.82
43770;BME280;6597;52.218;9.882;2023-04-07T04:59:37;100887.00;;;-0.41;96.84
43770;BME280;6597;52.218;9.882;2023-04-07T05:02:04;100900.78;;;-0.37;96.69
43770;BME280;6597;52.218;9.882;2023-04-07T05:04:31;100886.13;;;-0.43;97.21
43770;BME280;6597;52.218;9.882;2023-04-07T05:07:19;100904.38;;;-0.27;96.95
43770;BME280;6597;52.218;9.882;2023-04-07T05:09:45;100896.59;;;-0.30;96.45
43770;BME280;6597;52.218;9.882;2023-04-07T05:12:14;100905.31;;;-0.19;96.36
43770;BME280;6597;52.218;9.882;2023-04-07T05:14:45;100904.47;;;-0.18;95.56
43770;BME280;6597;52.218;9.882;2023-04-07T05:17:12;100904.50;;;-0.15;95.71
43770;BME280;6597;52.218;9.882;2023-04-07T05:19:39;100883.81;;;-0.20;95.87
43770;BME280;6597;52.218;9.882;2023-04-07T05:22:12;100907.19;;;-0.03;95.00
43770;BME280;6597;52.218;9.882;2023-04-07T05:24:45;100908.97;;;0.01;95.18
43770;BME280;6597;52.218;9.882;2023-04-07T05:27:12;100898.72;;;0.10;94.92
43770;BME280;6597;52.218;9.882;2023-04-07T05:29:40;100905.69;;;0.17;94.31
43770;BME280;6597;52.218;9.882;2023-04-07T05:32:13;100901.41;;;0.22;94.00
43770;BME280;6597;52.218;9.882;2023-04-07T05:34:39;100903.19;;;0.28;94.54
43770;BME280;6597;52.218;9.882;2023-04-07T05:37:06;100904.06;;;0.31;94.15
43770;BME280;6597;52.218;9.882;2023-04-07T05:39:33;100913.66;;;0.43;94.17
43770;BME280;6597;52.218;9.882;2023-04-07T05:42:03;100913.69;;;0.46;93.98
43770;BME280;6597;52.218;9.882;2023-04-07T05:44:29;100902.50;;;0.46;94.59
43770;BME280;6597;52.218;9.882;2023-04-07T05:46:56;100914.63;;;0.56;94.42
43770;BME280;6597;52.218;9.882;2023-04-07T05:49:24;100913.81;;;0.61;94.18
43770;BME280;6597;52.218;9.882;2023-04-07T05:51:59;100911.31;;;0.69;94.05
43770;BME280;6597;52.218;9.882;2023-04-07T05:54:29;100912.22;;;0.77;93.56
43770;BME280;6597;52.218;9.882;2023-04-07T05:56:57;100914.00;;;0.87;93.06
43770;BME280;6597;52.218;9.882;2023-04-07T05:59:25;100899.38;;;0.88;93.41
43770;BME280;6597;52.218;9.882;2023-04-07T06:01:51;100917.56;;;1.03;93.03
43770;BME280;6597;52.218;9.882;2023-04-07T06:04:19;100912.44;;;1.12;92.70
43770;BME280;6597;52.218;9.882;2023-04-07T06:06:48;100925.41;;;1.20;92.78
43770;BME280;6597;52.218;9.882;2023-04-07T06:09:17;100905.56;;;1.17;93.62
43770;BME280;6597;52.218;9.882;2023-04-07T06:11:43;100921.22;;;1.39;94.42
43770;BME280;6597;52.218;9.882;2023-04-07T06:14:14;100924.72;;;1.51;94.81
43770;BME280;6597;52.218;9.882;2023-04-07T06:16:42;100929.06;;;1.60;94.88
43770;BME280;6597;52.218;9.882;2023-04-07T06:19:08;100934.28;;;1.71;94.19
43770;BME280;6597;52.218;9.882;2023-04-07T06:21:35;100932.59;;;1.80;94.19
43770;BME280;6597;52.218;9.882;2023-04-07T06:24:04;100919.66;;;1.82;93.22
43770;BME280;6597;52.218;9.882;2023-04-07T06:26:33;100917.09;;;1.88;92.49
43770;BME280;6597;52.218;9.882;2023-04-07T06:29:00;100933.56;;;2.11;92.06
43770;BME280;6597;52.218;9.882;2023-04-07T06:31:27;100923.19;;;2.21;90.91
43770;BME280;6597;52.218;9.882;2023-04-07T06:33:55;100925.81;;;2.30;89.94
43770;BME280;6597;52.218;9.882;2023-04-07T06:36:21;100924.97;;;2.37;90.79
43770;BME280;6597;52.218;9.882;2023-04-07T06:38:48;100947.41;;;2.44;89.38
43770;BME280;6597;52.218;9.882;2023-04-07T06:41:15;100942.25;;;2.44;89.47
43770;BME280;6597;52.218;9.882;2023-04-07T06:43:42;100950.00;;;2.55;89.66
43770;BME280;6597;52.218;9.882;2023-04-07T06:46:09;100948.31;;;2.67;88.83
43770;BME280;6597;52.218;9.882;2023-04-07T06:48:35;100953.47;;;2.83;88.09
43770;BME280;6597;52.218;9.882;2023-04-07T06:51:03;100962.13;;;2.97;87.53
43770;BME280;6597;52.218;9.882;2023-04-07T06:53:30;100951.72;;;3.12;87.08
43770;BME280;6597;52.218;9.882;2023-04-07T06:56:03;100937.88;;;3.30;86.05
43770;BME280;6597;52.218;9.882;2023-04-07T06:58:30;100945.56;;;3.59;84.70
43770;BME280;6597;52.218;9.882;2023-04-07T07:00:57;100950.66;;;3.83;82.96
43770;BME280;6597;52.218;9.882;2023-04-07T07:03:24;100941.88;;;4.05;81.78
43770;BME280;6597;52.218;9.882;2023-04-07T07:05:52;100949.53;;;4.33;80.24
43770;BME280;6597;52.218;9.882;2023-04-07T07:08:22;100947.66;;;4.50;77.98
43770;BME280;6597;52.218;9.882;2023-04-07T07:10:48;100949.28;;;4.66;78.04
43770;BME280;6597;52.218;9.882;2023-04-07T07:13:15;100946.50;;;4.85;76.87
43770;BME280;6597;52.218;9.882;2023-04-07T07:15:41;100949.13;;;4.85;77.31
43770;BME280;6597;52.218;9.882;2023-04-07T07:18:08;100949.97;;;4.87;77.20
43770;BME280;6597;52.218;9.882;2023-04-07T07:20:34;100953.41;;;4.92;77.62
43770;BME280;6597;52.218;9.882;2023-04-07T07:23:01;100954.25;;;4.94;77.75
43770;BME280;6597;52.218;9.882;2023-04-07T07:25:29;100953.38;;;4.96;77.93
43770;BME280;6597;52.218;9.882;2023-04-07T07:27:55;100943.81;;;4.98;78.00
43770;BME280;6597;52.218;9.882;2023-04-07T07:30:22;100954.06;;;5.14;76.57
43770;BME280;6597;52.218;9.882;2023-04-07T07:32:49;100952.97;;;5.36;75.82
43770;BME280;6597;52.218;9.882;2023-04-07T07:35:18;100957.66;;;5.82;73.12
43770;BME280;6597;52.218;9.882;2023-04-07T07:37:45;100958.97;;;6.16;71.71
43770;BME280;6597;52.218;9.882;2023-04-07T07:40:13;100953.38;;;6.42;70.34
43770;BME280;6597;52.218;9.882;2023-04-07T07:42:41;100935.50;;;6.73;69.31
43770;BME280;6597;52.218;9.882;2023-04-07T07:45:08;100958.09;;;7.27;66.69
43770;BME280;6597;52.218;9.882;2023-04-07T07:47:36;100959.16;;;7.61;65.83
43770;BME280;6597;52.218;9.882;2023-04-07T07:50:03;100965.25;;;8.03;63.92
43770;BME280;6597;52.218;9.882;2023-04-07T07:52:30;100958.38;;;8.39;63.83
43770;BME280;6597;52.218;9.882;2023-04-07T07:54:56;100962.31;;;8.59;60.07
43770;BME280;6597;52.218;9.882;2023-04-07T07:57:23;100973.38;;;8.70;59.49
43770;BME280;6597;52.218;9.882;2023-04-07T07:59:51;100961.00;;;8.78;58.36
43770;BME280;6597;52.218;9.882;2023-04-07T08:02:18;100970.00;;;9.00;56.97
43770;BME280;6597;52.218;9.882;2023-04-07T08:04:44;100967.41;;;9.33;55.83
43770;BME280;6597;52.218;9.882;2023-04-07T08:07:11;100977.81;;;9.68;51.90
43770;BME280;6597;52.218;9.882;2023-04-07T08:09:37;100970.91;;;9.95;53.28
43770;BME280;6597;52.218;9.882;2023-04-07T08:12:04;100966.56;;;10.25;53.22
43770;BME280;6597;52.218;9.882;2023-04-07T08:14:31;100978.41;;;10.39;53.76
43770;BME280;6597;52.218;9.882;2023-04-07T08:16:59;100981.06;;;10.65;52.52
43770;BME280;6597;52.218;9.882;2023-04-07T08:19:25;100980.59;;;10.80;51.29
43770;BME280;6597;52.218;9.882;2023-04-07T08:21:52;100976.84;;;10.87;50.13
43770;BME280;6597;52.218;9.882;2023-04-07T08:24:18;100976.00;;;10.87;49.83
43770;BME280;6597;52.218;9.882;2023-04-07T08:26:45;100982.78;;;10.66;50.12
43770;BME280;6597;52.218;9.882;2023-04-07T08:29:11;100985.97;;;10.77;50.30
43770;BME280;6597;52.218;9.882;2023-04-07T08:31:38;100983.69;;;10.93;49.05
43770;BME280;6597;52.218;9.882;2023-04-07T08:34:06;100978.63;;;11.13;49.26
43770;BME280;6597;52.218;9.882;2023-04-07T08:36:32;100986.13;;;11.24;48.73
43770;BME280;6597;52.218;9.882;2023-04-07T08:38:59;100985.50;;;11.17;47.93
43770;BME280;6597;52.218;9.882;2023-04-07T08:41:29;100986.66;;;11.09;48.16
43770;BME280;6597;52.218;9.882;2023-04-07T08:44:00;100989.53;;;11.01;48.21
43770;BME280;6597;52.218;9.882;2023-04-07T08:46:28;100993.22;;;11.22;48.85
43770;BME280;6597;52.218;9.882;2023-04-07T08:48:56;100994.03;;;11.24;48.41
43770;BME280;6597;52.218;9.882;2023-04-07T08:51:27;100982.94;;;11.41;48.41
43770;BME280;6597;52.218;9.882;2023-04-07T08:53:57;100989.59;;;11.76;47.44
43770;BME280;6597;52.218;9.882;2023-04-07T08:56:26;100991.91;;;12.08;46.03
43770;BME280;6597;52.218;9.882;2023-04-07T08:58:53;100989.25;;;12.32;44.84
43770;BME280;6597;52.218;9.882;2023-04-07T09:01:21;100977.28;;;12.46;46.06
43770;BME280;6597;52.218;9.882;2023-04-07T09:03:48;100982.84;;;12.83;45.41
43770;BME280;6597;52.218;9.882;2023-04-07T09:06:15;100972.16;;;13.07;42.74
43770;BME280;6597;52.218;9.882;2023-04-07T09:08:43;100982.00;;;13.24;41.52
43770;BME280;6597;52.218;9.882;2023-04-07T09:11:10;100978.34;;;13.49;41.06
43770;BME280;6597;52.218;9.882;2023-04-07T09:13:37;100981.50;;;13.36;37.93
43770;BME280;6597;52.218;9.882;2023-04-07T09:16:04;100979.84;;;13.54;38.41
43770;BME280;6597;52.218;9.882;2023-04-07T09:18:30;100978.47;;;13.66;37.99
43770;BME280;6597;52.218;9.882;2023-04-07T09:20:59;100991.47;;;13.89;38.14
43770;BME280;6597;52.218;9.882;2023-04-07T09:23:28;100990.44;;;14.12;37.96
43770;BME280;6597;52.218;9.882;2023-04-07T09:25:56;100986.78;;;14.15;36.96
43770;BME280;6597;52.218;9.882;2023-04-07T09:28:37;100983.66;;;14.07;35.37
43770;BME280;6597;52.218;9.882;2023-04-07T09:31:06;100986.91;;;14.30;36.70
43770;BME280;6597;52.218;9.882;2023-04-07T09:33:33;100985.81;;;14.36;35.94
43770;BME280;6597;52.218;9.882;2023-04-07T09:36:00;100985.09;;;14.32;36.47
43770;BME280;6597;52.218;9.882;2023-04-07T09:38:32;100990.22;;;14.36;36.05
43770;BME280;6597;52.218;9.882;2023-04-07T09:41:06;100975.50;;;14.30;34.78
43770;BME280;6597;52.218;9.882;2023-04-07T09:43:34;100991.41;;;14.28;34.12
43770;BME280;6597;52.218;9.882;2023-04-07T09:46:13;100989.22;;;14.38;34.10
43770;BME280;6597;52.218;9.882;2023-04-07T09:48:41;100989.03;;;14.43;34.39
43770;BME280;6597;52.218;9.882;2023-04-07T09:51:09;100987.09;;;14.46;34.09
43770;BME280;6597;52.218;9.882;2023-04-07T09:53:46;100993.34;;;14.25;34.22
43770;BME280;6597;52.218;9.882;2023-04-07T09:56:15;100999.41;;;14.27;34.25
43770;BME280;6597;52.218;9.882;2023-04-07T09:58:44;100987.25;;;14.43;36.20
43770;BME280;6597;52.218;9.882;2023-04-07T10:01:12;100994.81;;;14.32;34.43
43770;BME280;6597;52.218;9.882;2023-04-07T10:03:38;100996.16;;;14.59;34.48
43770;BME280;6597;52.218;9.882;2023-04-07T10:06:05;101002.91;;;14.84;34.50
43770;BME280;6597;52.218;9.882;2023-04-07T10:08:34;100984.00;;;14.91;35.45
43770;BME280;6597;52.218;9.882;2023-04-07T10:11:01;100990.59;;;15.02;34.58
43770;BME280;6597;52.218;9.882;2023-04-07T10:13:31;100985.69;;;15.29;35.00
43770;BME280;6597;52.218;9.882;2023-04-07T10:15:59;100983.66;;;15.16;34.46
43770;BME280;6597;52.218;9.882;2023-04-07T10:18:29;100989.31;;;14.91;33.91
43770;BME280;6597;52.218;9.882;2023-04-07T10:20:56;100993.13;;;15.20;35.35
43770;BME280;6597;52.218;9.882;2023-04-07T10:23:34;100995.56;;;15.42;35.91
43770;BME280;6597;52.218;9.882;2023-04-07T10:26:04;100989.09;;;15.48;35.01
43770;BME280;6597;52.218;9.882;2023-04-07T10:28:37;100986.59;;;15.45;35.52
43770;BME280;6597;52.218;9.882;2023-04-07T10:31:04;100995.63;;;15.23;35.97
43770;BME280;6597;52.218;9.882;2023-04-07T10:33:46;100997.50;;;15.04;35.36
43770;BME280;6597;52.218;9.882;2023-04-07T10:36:13;101000.38;;;15.00;35.61
43770;BME280;6597;52.218;9.882;2023-04-07T10:38:40;100997.19;;;15.10;35.71
43770;BME280;6597;52.218;9.882;2023-04-07T10:41:31;100996.88;;;15.16;35.17
43770;BME280;6597;52.218;9.882;2023-04-07T10:44:01;101010.41;;;15.45;34.10
43770;BME280;6597;52.218;9.882;2023-04-07T10:47:01;101007.53;;;15.49;33.44
43770;BME280;6597;52.218;9.882;2023-04-07T10:49:28;101013.22;;;15.42;33.22
43770;BME280;6597;52.218;9.882;2023-04-07T10:52:22;100996.13;;;15.32;34.20
43770;BME280;6597;52.218;9.882;2023-04-07T10:55:29;100990.41;;;15.56;34.65
43770;BME280;6597;52.218;9.882;2023-04-07T10:58:16;101014.00;;;15.44;33.50
43770;BME280;6597;52.218;9.882;2023-04-07T11:01:16;101001.94;;;15.04;33.38
43770;BME280;6597;52.218;9.882;2023-04-07T11:03:58;100994.53;;;15.27;33.86
43770;BME280;6597;52.218;9.882;2023-04-07T11:06:25;101003.41;;;15.44;33.94
43770;BME280;6597;52.218;9.882;2023-04-07T11:08:52;100998.88;;;15.80;33.97
43770;BME280;6597;52.218;9.882;2023-04-07T11:11:36;100992.28;;;16.05;34.10
43770;BME280;6597;52.218;9.882;2023-04-07T11:14:04;100998.31;;;15.91;33.01
43770;BME280;6597;52.218;9.882;2023-04-07T11:16:40;100996.81;;;16.18;33.77
43770;BME280;6597;52.218;9.882;2023-04-07T11:19:07;100999.69;;;16.31;33.30
43770;BME280;6597;52.218;9.882;2023-04-07T11:21:34;101003.69;;;16.38;32.89
43770;BME280;6597;52.218;9.882;2023-04-07T11:24:02;100990.09;;;16.29;32.94
43770;BME280;6597;52.218;9.882;2023-04-07T11:26:28;101004.69;;;16.04;34.11
43770;BME280;6597;52.218;9.882;2023-04-07T11:28:55;101005.09;;;15.64;33.79
43770;BME280;6597;52.218;9.882;2023-04-07T11:31:24;101003.03;;;15.34;33.64
43770;BME280;6597;52.218;9.882;2023-04-07T11:33:54;101001.38;;;15.49;34.11
43770;BME280;6597;52.218;9.882;2023-04-07T11:36:28;100993.47;;;15.32;33.86
43770;BME280;6597;52.218;9.882;2023-04-07T11:38:57;100993.16;;;15.72;34.70
43770;BME280;6597;52.218;9.882;2023-04-07T11:41:25;101001.94;;;15.73;33.92
43770;BME280;6597;52.218;9.882;2023-04-07T11:44:06;100999.16;;;15.92;32.30
43770;BME280;6597;52.218;9.882;2023-04-07T11:46:33;100996.81;;;16.03;32.35
43770;BME280;6597;52.218;9.882;2023-04-07T11:49:10;100993.09;;;16.38;32.67
43770;BME280;6597;52.218;9.882;2023-04-07T11:51:36;100993.91;;;16.23;32.01
43770;BME280;6597;52.218;9.882;2023-04-07T11:54:03;101000.63;;;16.46;32.87
43770;BME280;6597;52.218;9.882;2023-04-07T11:56:41;100986.94;;;16.85;32.29
43770;BME280;6597;52.218;9.882;2023-04-07T11:59:07;101002.50;;;16.60;31.57
43770;BME280;6597;52.218;9.882;2023-04-07T12:01:40;101000.34;;;16.19;32.91
43770;BME280;6597;52.218;9.882;2023-04-07T12:04:12;100996.44;;;16.42;33.02
43770;BME280;6597;52.218;9.882;2023-04-07T12:06:40;100994.63;;;16.42;33.95
43770;BME280;6597;52.218;9.882;2023-04-07T12:09:07;100995.84;;;16.37;33.42
43770;BME280;6597;52.218;9.882;2023-04-07T12:11:35;101000.78;;;16.27;33.87
43770;BME280;6597;52.218;9.882;2023-04-07T12:14:03;101002.44;;;16.77;32.82
43770;BME280;6597;52.218;9.882;2023-04-07T12:16:30;100996.69;;;16.85;33.76
43770;BME280;6597;52.218;9.882;2023-04-07T12:18:58;100996.91;;;17.11;32.69
43770;BME280;6597;52.218;9.882;2023-04-07T12:21:26;100990.50;;;17.00;32.99
43770;BME280;6597;52.218;9.882;2023-04-07T12:23:52;100993.28;;;17.13;32.02
43770;BME280;6597;52.218;9.882;2023-04-07T12:26:19;100986.69;;;16.74;31.86
43770;BME280;6597;52.218;9.882;2023-04-07T12:28:46;100997.97;;;16.77;32.30
43770;BME280;6597;52.218;9.882;2023-04-07T12:31:12;100994.56;;;16.75;32.20
43770;BME280;6597;52.218;9.882;2023-04-07T12:33:39;100994.56;;;16.60;32.06
43770;BME280;6597;52.218;9.882;2023-04-07T12:36:06;100995.50;;;16.43;32.59
43770;BME280;6597;52.218;9.882;2023-04-07T12:38:34;100992.78;;;16.76;33.18
43770;BME280;6597;52.218;9.882;2023-04-07T12:41:00;100991.81;;;16.61;32.93
43770;BME280;6597;52.218;9.882;2023-04-07T12:43:27;100989.69;;;16.36;33.41
43770;BME280;6597;52.218;9.882;2023-04-07T12:45:54;100997.91;;;16.79;33.86
43770;BME280;6597;52.218;9.882;2023-04-07T12:48:21;100986.84;;;16.87;32.54
43770;BME280;6597;52.218;9.882;2023-04-07T12:50:48;100993.44;;;17.25;33.58
43770;BME280;6597;52.218;9.882;2023-04-07T12:53:15;100992.53;;;17.55;33.38
43770;BME280;6597;52.218;9.882;2023-04-07T12:55:43;100989.84;;;17.70;33.23
43770;BME280;6597;52.218;9.882;2023-04-07T12:58:09;100973.81;;;17.86;31.95
43770;BME280;6597;52.218;9.882;2023-04-07T13:00:36;100995.28;;;17.97;31.33
43770;BME280;6597;52.218;9.882;2023-04-07T13:03:02;100992.81;;;17.94;30.40
43770;BME280;6597;52.218;9.882;2023-04-07T13:05:29;100992.66;;;17.23;32.62
43770;BME280;6597;52.218;9.882;2023-04-07T13:07:56;100986.16;;;16.99;32.94
43770;BME280;6597;52.218;9.882;2023-04-07T13:10:22;100986.88;;;16.71;32.40
43770;BME280;6597;52.218;9.882;2023-04-07T13:12:50;100994.13;;;16.52;31.78
43770;BME280;6597;52.218;9.882;2023-04-07T13:15:17;100984.47;;;16.35;32.79